createdAt,value
2018-04-17T00:00:01.522Z,5.40
2018-04-17T00:02:27.656Z,4.80
2018-04-17T00:04:53.809Z,4.85
2018-04-17T00:07:19.948Z,5.20
2018-04-17T00:09:46.067Z,5.03
2018-04-17T00:12:12.183Z,4.87
2018-04-17T00:14:39.060Z,4.28
2018-04-17T00:17:05.215Z,4.85
2018-04-17T00:19:31.345Z,5.20
2018-04-17T00:21:57.492Z,5.15
2018-04-17T00:24:23.659Z,4.90
2018-04-17T00:26:49.794Z,5.55
2018-04-17T00:29:15.906Z,4.70
2018-04-17T00:31:42.040Z,5.70
2018-04-17T00:34:08.148Z,4.85
2018-04-17T00:36:34.273Z,5.18
2018-04-17T00:39:00.404Z,5.35
2018-04-17T00:41:26.546Z,5.15
2018-04-17T00:43:52.678Z,5.25
2018-04-17T00:46:18.801Z,5.45
2018-04-17T00:48:44.921Z,5.60
2018-04-17T00:51:11.090Z,4.95
2018-04-17T00:53:49.781Z,5.10
2018-04-17T00:56:15.904Z,5.87
2018-04-17T00:58:42.775Z,6.07
2018-04-17T01:01:08.917Z,5.80
2018-04-17T01:03:35.044Z,5.68
2018-04-17T01:06:01.901Z,6.65
2018-04-17T01:08:28.769Z,5.18
2018-04-17T01:10:54.919Z,5.05
2018-04-17T01:13:21.058Z,6.05
2018-04-17T01:15:47.218Z,5.82
2018-04-17T01:18:13.349Z,5.55
2018-04-17T01:20:39.502Z,4.93
2018-04-17T01:23:05.640Z,5.43
2018-04-17T01:25:31.776Z,6.45
2018-04-17T01:27:57.925Z,6.55
2018-04-17T01:30:24.078Z,6.45
2018-04-17T01:32:50.320Z,5.80
2018-04-17T01:35:16.472Z,5.75
2018-04-17T01:37:42.609Z,6.28
2018-04-17T01:40:08.744Z,5.60
2018-04-17T01:42:34.873Z,6.75
2018-04-17T01:45:01.002Z,6.00
2018-04-17T01:47:27.144Z,6.50
2018-04-17T01:49:53.506Z,7.05
2018-04-17T01:52:19.646Z,6.05
2018-04-17T01:54:45.770Z,7.03
2018-04-17T01:57:11.920Z,6.60
2018-04-17T01:59:38.073Z,6.25
2018-04-17T02:02:04.241Z,5.65
2018-04-17T02:04:30.373Z,6.43
2018-04-17T02:06:58.150Z,5.90
2018-04-17T02:09:24.301Z,5.70
2018-04-17T02:11:50.458Z,6.00
2018-04-17T02:14:17.322Z,5.75
2018-04-17T02:16:43.473Z,6.20
2018-04-17T02:19:09.617Z,6.40
2018-04-17T02:21:35.753Z,6.40
2018-04-17T02:24:01.875Z,6.53
2018-04-17T02:26:27.995Z,6.80
2018-04-17T02:28:54.131Z,6.55
2018-04-17T02:31:20.236Z,7.22
2018-04-17T02:33:46.366Z,5.75
2018-04-17T02:36:12.590Z,5.80
2018-04-17T02:38:38.780Z,6.03
2018-04-17T02:41:04.902Z,6.05
2018-04-17T02:43:31.769Z,6.05
2018-04-17T02:45:58.639Z,6.45
2018-04-17T02:48:24.769Z,6.10
2018-04-17T02:50:50.902Z,5.97
2018-04-17T02:53:17.769Z,6.25
2018-04-17T02:55:43.897Z,6.55
2018-04-17T02:58:10.820Z,6.15
2018-04-17T03:00:36.966Z,6.53
2018-04-17T03:03:03.096Z,6.50
2018-04-17T03:05:29.257Z,6.43
2018-04-17T03:07:56.145Z,6.85
2018-04-17T03:10:22.314Z,6.72
2018-04-17T03:12:48.444Z,7.00
2018-04-17T03:15:14.591Z,5.60
2018-04-17T03:17:40.720Z,6.60
2018-04-17T03:20:06.869Z,6.10
2018-04-17T03:22:33.009Z,7.10
2018-04-17T03:24:59.152Z,6.87
2018-04-17T03:27:25.292Z,7.95
2018-04-17T03:29:51.433Z,9.18
2018-04-17T03:32:17.588Z,7.95
2018-04-17T03:34:43.732Z,8.40
2018-04-17T03:37:09.867Z,8.38
2018-04-17T03:39:35.990Z,6.55
2018-04-17T03:42:02.129Z,7.43
2018-04-17T03:44:28.262Z,7.62
2018-04-17T03:46:54.393Z,7.40
2018-04-17T03:49:20.517Z,6.87
2018-04-17T03:51:46.678Z,6.78
2018-04-17T03:54:12.813Z,6.32
2018-04-17T03:56:39.793Z,6.45
2018-04-17T03:59:05.940Z,6.65
2018-04-17T04:01:32.097Z,7.20
2018-04-17T04:03:58.957Z,6.55
2018-04-17T04:06:25.833Z,6.30
2018-04-17T04:08:51.966Z,6.47
2018-04-17T04:11:18.117Z,6.10
2018-04-17T04:13:44.998Z,6.20
2018-04-17T04:16:23.610Z,6.25
2018-04-17T04:19:02.013Z,6.95
2018-04-17T04:21:41.129Z,6.12
2018-04-17T04:24:19.572Z,7.00
2018-04-17T04:26:46.461Z,7.22
2018-04-17T04:29:12.590Z,7.62
2018-04-17T04:31:38.725Z,6.50
2018-04-17T04:34:04.876Z,7.40
2018-04-17T04:36:31.000Z,7.10
2018-04-17T04:38:57.194Z,7.65
2018-04-17T04:41:23.320Z,7.20
2018-04-17T04:43:49.484Z,6.68
2018-04-17T04:46:15.630Z,6.75
2018-04-17T04:48:41.786Z,6.97
2018-04-17T04:51:07.937Z,7.15
2018-04-17T04:53:34.116Z,6.07
2018-04-17T04:56:00.257Z,7.18
2018-04-17T04:58:26.417Z,6.90
2018-04-17T05:00:52.523Z,8.07
2018-04-17T05:03:18.667Z,6.70
2018-04-17T05:05:44.792Z,7.82
2018-04-17T05:08:10.912Z,6.62
2018-04-17T05:10:37.782Z,7.20
2018-04-17T05:13:03.905Z,6.85
2018-04-17T05:15:30.773Z,7.20
2018-04-17T05:17:56.913Z,7.72
2018-04-17T05:20:23.060Z,7.55
2018-04-17T05:22:49.194Z,6.90
2018-04-17T05:25:15.334Z,7.60
2018-04-17T05:27:41.470Z,8.25
2018-04-17T05:30:07.608Z,7.87
2018-04-17T05:32:33.721Z,7.40
2018-04-17T05:35:00.605Z,7.03
2018-04-17T05:37:26.744Z,7.93
2018-04-17T05:39:53.128Z,10.43
2018-04-17T05:42:19.254Z,8.55
2018-04-17T05:44:45.379Z,8.43
2018-04-17T05:47:11.495Z,9.45
2018-04-17T05:49:38.293Z,8.60
2018-04-17T05:52:04.376Z,8.43
2018-04-17T05:54:31.189Z,8.15
2018-04-17T05:56:57.328Z,8.00
2018-04-17T05:59:23.417Z,8.95
2018-04-17T06:01:49.513Z,9.45
2018-04-17T06:04:15.594Z,8.88
2018-04-17T06:06:41.703Z,9.45
2018-04-17T06:09:07.777Z,9.20
2018-04-17T06:11:33.857Z,9.15
2018-04-17T06:13:59.925Z,9.55
2018-04-17T06:16:26.755Z,10.10
2018-04-17T06:18:52.820Z,10.95
2018-04-17T06:21:19.661Z,9.80
2018-04-17T06:23:45.735Z,9.80
2018-04-17T06:26:11.828Z,10.20
2018-04-17T06:28:37.901Z,10.43
2018-04-17T06:31:03.986Z,10.20
2018-04-17T06:33:30.056Z,10.77
2018-04-17T06:35:56.230Z,11.37
2018-04-17T06:38:22.317Z,11.10
2018-04-17T06:40:48.372Z,10.83
2018-04-17T06:43:14.444Z,10.23
2018-04-17T06:45:40.524Z,11.77
2018-04-17T06:48:06.615Z,9.70
2018-04-17T06:50:32.676Z,11.80
2018-04-17T06:52:58.765Z,11.60
2018-04-17T06:55:24.846Z,10.17
2018-04-17T06:57:50.944Z,12.47
2018-04-17T07:00:17.756Z,12.13
2018-04-17T07:02:43.828Z,11.57
2018-04-17T07:05:09.888Z,12.30
2018-04-17T07:07:36.774Z,11.70
2018-04-17T07:10:02.845Z,12.33
2018-04-17T07:12:28.926Z,13.20
2018-04-17T07:14:55.227Z,13.37
2018-04-17T07:17:21.300Z,12.00
2018-04-17T07:19:48.180Z,13.90
2018-04-17T07:22:14.281Z,11.97
2018-04-17T07:24:41.187Z,13.63
2018-04-17T07:27:07.414Z,14.30
2018-04-17T07:29:33.498Z,13.50
2018-04-17T07:31:59.865Z,14.00
2018-04-17T07:34:26.702Z,14.17
2018-04-17T07:36:52.792Z,14.80
2018-04-17T07:39:18.922Z,14.37
2018-04-17T07:41:44.993Z,14.20
2018-04-17T07:44:11.112Z,13.97
2018-04-17T07:46:37.236Z,12.33
2018-04-17T07:49:06.369Z,13.20
2018-04-17T07:51:32.445Z,13.90
2018-04-17T07:53:58.692Z,13.60
2018-04-17T07:56:25.534Z,13.70
2018-04-17T07:58:51.712Z,14.40
2018-04-17T08:01:17.789Z,13.20
2018-04-17T08:03:43.880Z,14.07
2018-04-17T08:06:09.965Z,13.90
2018-04-17T08:08:36.037Z,12.57
2018-04-17T08:11:02.869Z,13.87
2018-04-17T08:13:28.952Z,13.83
2018-04-17T08:15:55.048Z,14.03
2018-04-17T08:18:21.149Z,13.83
2018-04-17T08:20:47.228Z,13.23
2018-04-17T08:23:13.321Z,12.90
2018-04-17T08:25:39.392Z,15.80
2018-04-17T08:28:05.465Z,13.57
2018-04-17T08:30:32.333Z,14.37
2018-04-17T08:32:58.409Z,14.63
2018-04-17T08:35:24.493Z,13.53
2018-04-17T08:37:51.313Z,13.50
2018-04-17T08:40:17.380Z,15.40
2018-04-17T08:42:44.232Z,13.27
2018-04-17T08:45:10.285Z,14.17
2018-04-17T08:47:37.110Z,15.00
2018-04-17T08:50:03.207Z,14.17
2018-04-17T08:52:29.274Z,13.13
2018-04-17T08:54:55.474Z,13.30
2018-04-17T08:57:21.547Z,13.17
2018-04-17T08:59:47.624Z,14.37
2018-04-17T09:02:14.437Z,12.80
2018-04-17T09:04:40.532Z,12.87
2018-04-17T09:07:06.600Z,12.93
2018-04-17T09:09:32.683Z,11.63
2018-04-17T09:11:58.754Z,13.20
2018-04-17T09:14:25.919Z,12.30
2018-04-17T09:16:52.006Z,11.77
2018-04-17T09:19:18.068Z,11.00
2018-04-17T09:21:44.891Z,11.63
2018-04-17T09:24:10.984Z,11.77
2018-04-17T09:26:37.126Z,12.00
2018-04-17T09:29:03.193Z,13.20
2018-04-17T09:31:29.307Z,11.43
2018-04-17T09:33:55.442Z,10.67
2018-04-17T09:36:21.509Z,10.53
2018-04-17T09:38:47.584Z,9.90
2018-04-17T09:41:13.757Z,9.90
2018-04-17T09:43:39.838Z,10.47
2018-04-17T09:46:05.921Z,10.43
2018-04-17T09:48:32.721Z,9.93
2018-04-17T09:50:58.810Z,10.13
2018-04-17T09:53:25.640Z,9.50
2018-04-17T09:55:51.844Z,8.80
2018-04-17T09:58:17.912Z,8.70
2018-04-17T10:00:50.138Z,7.53
2018-04-17T10:03:16.218Z,8.90
2018-04-17T10:05:42.281Z,8.20
2018-04-17T10:08:08.354Z,7.47
2018-04-17T10:10:34.422Z,8.63
2018-04-17T10:13:00.496Z,7.23
2018-04-17T10:15:26.561Z,6.73
2018-04-17T10:17:53.386Z,6.47
2018-04-17T10:20:19.441Z,7.20
2018-04-17T10:22:46.249Z,6.90
2018-04-17T10:25:12.305Z,6.83
2018-04-17T10:27:38.385Z,6.33
2018-04-17T10:30:05.185Z,5.10
2018-04-17T10:32:31.280Z,5.40
2018-04-17T10:34:57.357Z,6.00
2018-04-17T10:37:23.430Z,5.87
2018-04-17T10:39:49.511Z,6.40
2018-04-17T10:42:15.594Z,5.93
2018-04-17T10:44:41.662Z,5.83
2018-04-17T10:47:08.469Z,5.57
2018-04-17T10:49:34.546Z,4.33
2018-04-17T10:52:01.350Z,4.73
2018-04-17T10:54:27.485Z,4.83
2018-04-17T10:56:53.548Z,5.27
2018-04-17T10:59:19.653Z,3.93
2018-04-17T11:01:45.725Z,2.60
2018-04-17T11:04:11.790Z,2.90
2018-04-17T11:06:38.592Z,2.90
2018-04-17T11:09:04.654Z,3.30
2018-04-17T11:11:30.720Z,3.37
2018-04-17T11:13:57.532Z,3.17
2018-04-17T11:16:23.601Z,3.20
2018-04-17T11:18:50.410Z,2.70
2018-04-17T11:21:16.503Z,3.70
2018-04-17T11:23:43.289Z,3.50
2018-04-17T11:26:09.359Z,2.90
2018-04-17T11:28:35.417Z,3.00
2018-04-17T11:31:01.488Z,4.10
2018-04-17T11:33:27.640Z,3.50
2018-04-17T11:35:53.717Z,3.57
2018-04-17T11:38:19.769Z,3.10
2018-04-17T11:40:45.877Z,3.50
2018-04-17T11:43:11.942Z,3.37
2018-04-17T11:45:37.997Z,2.97
2018-04-17T11:48:04.069Z,3.00
2018-04-17T11:50:30.141Z,2.97
2018-04-17T11:52:56.234Z,3.20
2018-04-17T11:55:22.353Z,3.17
2018-04-17T11:57:49.206Z,2.40
2018-04-17T12:00:16.054Z,3.50
2018-04-17T12:02:42.869Z,2.47
2018-04-17T12:05:09.014Z,3.20
2018-04-17T12:07:35.068Z,3.20
2018-04-17T12:10:01.138Z,3.33
2018-04-17T12:12:27.283Z,2.80
2018-04-17T12:14:53.356Z,2.60
2018-04-17T12:17:19.423Z,3.17
2018-04-17T12:19:45.651Z,2.97
2018-04-17T12:22:11.826Z,2.67
2018-04-17T12:24:38.656Z,3.50
2018-04-17T12:27:04.713Z,3.43
2018-04-17T12:29:31.575Z,2.73
2018-04-17T12:31:58.396Z,2.87
2018-04-17T12:34:24.468Z,3.10
2018-04-17T12:36:50.543Z,2.60
2018-04-17T12:39:16.639Z,2.80
2018-04-17T12:41:43.439Z,3.20
2018-04-17T12:44:09.496Z,2.70
2018-04-17T12:46:35.570Z,2.50
2018-04-17T12:49:02.384Z,3.43
2018-04-17T12:51:28.465Z,2.50
2018-04-17T12:53:55.272Z,2.67
2018-04-17T12:56:21.356Z,2.53
2018-04-17T12:58:48.167Z,3.13
2018-04-17T13:01:14.241Z,2.80
2018-04-17T13:03:41.036Z,2.77
2018-04-17T13:06:07.117Z,2.70
2018-04-17T13:08:33.186Z,2.53
2018-04-17T13:10:59.240Z,2.63
2018-04-17T13:13:25.314Z,2.67
2018-04-17T13:15:51.411Z,2.87
2018-04-17T13:18:18.241Z,2.73
2018-04-17T13:20:44.316Z,2.70
2018-04-17T13:23:10.410Z,2.60
2018-04-17T13:25:37.228Z,2.77
2018-04-17T13:28:03.326Z,3.40
2018-04-17T13:30:29.403Z,2.53
2018-04-17T13:32:55.490Z,2.87
2018-04-17T13:35:22.321Z,2.63
2018-04-17T13:37:48.426Z,2.37
2018-04-17T13:40:14.490Z,2.80
2018-04-17T13:42:40.549Z,2.27
2018-04-17T13:45:07.366Z,2.20
2018-04-17T13:47:33.478Z,2.43
2018-04-17T13:49:59.536Z,3.87
2018-04-17T13:52:25.618Z,2.10
2018-04-17T13:54:52.421Z,2.27
2018-04-17T13:57:18.478Z,2.43
2018-04-17T13:59:44.550Z,3.00
2018-04-17T14:02:10.611Z,2.70
2018-04-17T14:04:36.689Z,1.90
2018-04-17T14:07:02.774Z,2.73
2018-04-17T14:09:29.572Z,2.30
2018-04-17T14:11:55.657Z,2.00
2018-04-17T14:14:22.461Z,2.10
2018-04-17T14:16:48.538Z,1.97
2018-04-17T14:19:15.340Z,2.57
2018-04-17T14:21:41.420Z,2.13
2018-04-17T14:24:07.497Z,2.70
2018-04-17T14:26:33.583Z,2.60
2018-04-17T14:28:59.682Z,2.70
2018-04-17T14:31:25.760Z,2.37
2018-04-17T14:33:51.818Z,2.27
2018-04-17T14:36:18.629Z,3.00
2018-04-17T14:38:44.704Z,1.90
2018-04-17T14:41:10.776Z,2.37
2018-04-17T14:43:36.860Z,2.57
2018-04-17T14:46:02.913Z,2.23
2018-04-17T14:48:28.990Z,2.53
2018-04-17T14:50:55.059Z,2.10
2018-04-17T14:53:21.120Z,2.37
2018-04-17T14:55:47.297Z,3.57
2018-04-17T14:58:13.356Z,2.47
2018-04-17T15:00:39.443Z,2.60
2018-04-17T15:03:05.524Z,2.60
2018-04-17T15:05:31.573Z,2.50
2018-04-17T15:07:57.641Z,1.90
2018-04-17T15:10:23.706Z,1.90
2018-04-17T15:12:50.562Z,2.03
2018-04-17T15:15:16.627Z,1.97
2018-04-17T15:17:43.409Z,3.30
2018-04-17T15:20:09.475Z,2.20
2018-04-17T15:22:35.572Z,1.90
2018-04-17T15:25:01.636Z,2.27
2018-04-17T15:27:27.737Z,2.43
2018-04-17T15:29:53.789Z,2.67
2018-04-17T15:32:19.854Z,1.60
2018-04-17T15:34:45.942Z,1.70
2018-04-17T15:37:12.028Z,2.00
2018-04-17T15:39:38.146Z,2.30
2018-04-17T15:42:04.217Z,2.70
2018-04-17T15:44:30.292Z,2.70
2018-04-17T15:46:56.361Z,2.17
2018-04-17T15:49:22.510Z,2.33
2018-04-17T15:51:48.617Z,1.90
2018-04-17T15:54:15.780Z,3.30
2018-04-17T15:56:41.870Z,10.13
2018-04-17T15:59:08.018Z,4.93
2018-04-17T16:01:34.840Z,8.03
2018-04-17T16:04:00.897Z,2.43
2018-04-17T16:06:26.971Z,1.83
2018-04-17T16:08:53.037Z,2.13
2018-04-17T16:11:19.353Z,2.60
2018-04-17T16:13:45.419Z,2.40
2018-04-17T16:16:11.643Z,2.70
2018-04-17T16:18:37.722Z,1.97
2018-04-17T16:21:03.820Z,2.20
2018-04-17T16:23:29.908Z,2.13
2018-04-17T16:25:56.088Z,2.10
2018-04-17T16:28:22.274Z,2.70
2018-04-17T16:30:48.564Z,2.20
2018-04-17T16:33:14.644Z,2.00
2018-04-17T16:35:40.769Z,1.70
2018-04-17T16:38:06.888Z,2.50
2018-04-17T16:40:32.990Z,2.17
2018-04-17T16:42:59.816Z,2.77
2018-04-17T16:45:25.903Z,2.73
2018-04-17T16:47:52.077Z,2.20
2018-04-17T16:50:18.165Z,2.40
2018-04-17T16:52:44.998Z,2.40
2018-04-17T16:55:11.096Z,2.50
2018-04-17T16:57:37.209Z,2.40
2018-04-17T17:00:04.103Z,2.90
2018-04-17T17:02:30.201Z,2.47
2018-04-17T17:04:57.024Z,2.30
2018-04-17T17:07:23.143Z,2.60
2018-04-17T17:09:49.225Z,3.30
2018-04-17T17:12:16.059Z,2.57
2018-04-17T17:14:42.236Z,2.70
2018-04-17T17:17:08.336Z,3.07
2018-04-17T17:19:34.426Z,2.47
2018-04-17T17:22:00.538Z,3.17
2018-04-17T17:24:27.553Z,3.67
2018-04-17T17:26:53.841Z,3.23
2018-04-17T17:29:20.688Z,2.60
2018-04-17T17:31:47.513Z,3.00
2018-04-17T17:34:13.593Z,3.00
2018-04-17T17:36:40.388Z,2.40
2018-04-17T17:39:06.473Z,2.97
2018-04-17T17:41:33.305Z,2.87
2018-04-17T17:43:59.389Z,3.53
2018-04-17T17:46:25.481Z,2.40
2018-04-17T17:48:51.562Z,3.20
2018-04-17T17:51:17.662Z,4.17
2018-04-17T17:53:43.720Z,3.43
2018-04-17T17:56:10.536Z,3.27
2018-04-17T17:58:36.588Z,3.30
2018-04-17T18:01:02.697Z,3.37
2018-04-17T18:03:28.756Z,3.33
2018-04-17T18:05:54.829Z,2.90
2018-04-17T18:08:20.918Z,3.40
2018-04-17T18:10:46.988Z,3.17
2018-04-17T18:13:13.036Z,3.23
2018-04-17T18:15:39.860Z,2.90
2018-04-17T18:18:05.948Z,2.97
2018-04-17T18:20:32.764Z,5.33
2018-04-17T18:22:58.841Z,4.20
2018-04-17T18:25:24.915Z,4.37
2018-04-17T18:27:51.027Z,5.53
2018-04-17T18:30:17.088Z,5.33
2018-04-17T18:32:43.153Z,4.70
2018-04-17T18:35:09.232Z,4.63
2018-04-17T18:37:35.370Z,4.07
2018-04-17T18:40:01.429Z,5.23
2018-04-17T18:42:27.504Z,4.27
2018-04-17T18:44:53.575Z,5.00
2018-04-17T18:47:20.381Z,5.30
2018-04-17T18:49:46.461Z,5.40
2018-04-17T18:52:13.281Z,4.90
2018-04-17T18:54:39.346Z,4.00
2018-04-17T18:57:06.145Z,5.23
2018-04-17T18:59:32.222Z,4.53
2018-04-17T19:01:58.291Z,4.23
2018-04-17T19:04:25.084Z,4.80
2018-04-17T19:06:51.175Z,3.87
2018-04-17T19:09:17.974Z,4.53
2018-04-17T19:11:44.037Z,4.90
2018-04-17T19:14:10.237Z,4.57
2018-04-17T19:16:36.325Z,4.80
2018-04-17T19:19:02.418Z,4.20
2018-04-17T19:21:28.523Z,4.60
2018-04-17T19:23:55.369Z,4.83
2018-04-17T19:26:22.237Z,5.80
2018-04-17T19:28:49.109Z,5.97
2018-04-17T19:31:15.277Z,6.03
2018-04-17T19:33:41.384Z,6.60
2018-04-17T19:36:07.477Z,6.60
2018-04-17T19:38:33.558Z,5.37
2018-04-17T19:40:59.643Z,5.20
2018-04-17T19:43:25.883Z,4.83
2018-04-17T19:45:51.986Z,4.90
2018-04-17T19:48:18.072Z,4.63
2018-04-17T19:50:44.158Z,4.70
2018-04-17T19:53:10.297Z,5.70
2018-04-17T19:55:36.365Z,6.33
2018-04-17T19:58:02.495Z,5.80
2018-04-17T20:00:28.585Z,6.13
2018-04-17T20:02:54.698Z,5.60
2018-04-17T20:05:20.769Z,5.50
2018-04-17T20:07:46.852Z,6.13
2018-04-17T20:10:12.950Z,5.50
2018-04-17T20:12:39.083Z,5.53
2018-04-17T20:15:05.217Z,5.20
2018-04-17T20:17:32.020Z,5.90
2018-04-17T20:19:58.132Z,6.43
2018-04-17T20:22:24.225Z,5.50
2018-04-17T20:24:50.414Z,6.03
2018-04-17T20:27:16.537Z,5.83
2018-04-17T20:29:42.693Z,6.80
2018-04-17T20:32:08.830Z,6.03
2018-04-17T20:34:34.957Z,5.40
2018-04-17T20:37:01.108Z,6.40
2018-04-17T20:39:27.282Z,6.40
2018-04-17T20:41:53.382Z,6.20
2018-04-17T20:44:19.525Z,6.50
2018-04-17T20:46:46.380Z,7.63
2018-04-17T20:49:12.562Z,7.10
2018-04-17T20:51:38.766Z,6.13
2018-04-17T20:54:04.934Z,7.10
2018-04-17T20:56:31.053Z,8.03
2018-04-17T20:58:57.189Z,7.60
2018-04-17T21:01:23.292Z,7.10
2018-04-17T21:03:50.116Z,7.20
2018-04-17T21:06:16.306Z,6.83
2018-04-17T21:08:42.409Z,6.40
2018-04-17T21:11:08.534Z,6.37
2018-04-17T21:13:34.657Z,6.63
2018-04-17T21:16:00.765Z,6.43
2018-04-17T21:18:26.852Z,7.00
2018-04-17T21:20:52.985Z,7.00
2018-04-17T21:23:19.085Z,6.57
2018-04-17T21:25:45.193Z,7.20
2018-04-17T21:28:12.002Z,7.67
2018-04-17T21:30:38.070Z,7.10
2018-04-17T21:33:04.897Z,8.60
2018-04-17T21:35:30.952Z,7.77
2018-04-17T21:37:57.028Z,7.50
2018-04-17T21:40:23.105Z,7.20
2018-04-17T21:42:49.169Z,7.83
2018-04-17T21:45:15.239Z,7.60
2018-04-17T21:47:41.431Z,7.67
2018-04-17T21:50:07.492Z,7.53
2018-04-17T21:52:33.568Z,9.37
2018-04-17T21:54:59.625Z,9.40
2018-04-17T21:57:25.737Z,9.20
2018-04-17T21:59:51.781Z,8.23
2018-04-17T22:02:17.874Z,8.00
2018-04-17T22:04:43.949Z,8.67
2018-04-17T22:07:10.007Z,9.00
2018-04-17T22:09:36.090Z,8.10
2018-04-17T22:12:02.145Z,7.60
2018-04-17T22:14:28.963Z,8.17
2018-04-17T22:16:55.033Z,8.30
2018-04-17T22:19:21.854Z,10.10
2018-04-17T22:21:47.966Z,7.50
2018-04-17T22:24:14.104Z,7.97
2018-04-17T22:26:40.188Z,8.20
2018-04-17T22:29:06.296Z,8.00
2018-04-17T22:31:32.364Z,6.90
2018-04-17T22:33:58.449Z,7.70
2018-04-17T22:36:24.561Z,7.83
2018-04-17T22:38:51.477Z,7.63
2018-04-17T22:41:17.590Z,8.10
2018-04-17T22:43:43.701Z,8.00
2018-04-17T22:46:10.536Z,7.10
2018-04-17T22:48:36.630Z,10.80
2018-04-17T22:51:02.739Z,29.50
2018-04-17T22:53:28.839Z,16.77
2018-04-17T22:55:54.940Z,9.00
2018-04-17T22:58:21.032Z,8.63
2018-04-17T23:00:47.855Z,10.70
2018-04-17T23:03:13.924Z,8.20
2018-04-17T23:05:40.742Z,9.63
2018-04-17T23:08:06.826Z,8.33
2018-04-17T23:10:33.645Z,7.53
2018-04-17T23:12:59.760Z,9.93
2018-04-17T23:15:25.820Z,8.53
2018-04-17T23:17:51.925Z,8.43
2018-04-17T23:20:17.989Z,8.10
2018-04-17T23:22:44.116Z,8.13
2018-04-17T23:25:10.196Z,8.30
2018-04-17T23:27:36.277Z,8.07
2018-04-17T23:30:02.373Z,8.53
2018-04-17T23:32:28.464Z,8.87
2018-04-17T23:34:54.542Z,7.87
2018-04-17T23:37:20.646Z,8.80
2018-04-17T23:39:46.737Z,8.17
2018-04-17T23:42:13.571Z,8.30
2018-04-17T23:44:39.654Z,7.73
2018-04-17T23:47:05.803Z,8.27
2018-04-17T23:49:31.874Z,7.90
2018-04-17T23:51:57.960Z,8.73
2018-04-17T23:54:24.048Z,8.67
2018-04-17T23:56:50.156Z,8.60
2018-04-17T23:59:16.237Z,8.47
